Time;durP1;ratioP1;P1;durP2;ratioP2;P2;SDS_P1;SDS_P2;PMS_P1;PMS_P2;Temp;Humidity;BMP_temperature;BMP_pressure;BME280_temperature;BME280_humidity;BME280_pressure;Samples;Min_cycle;Max_cycle;Signal;HPM_P1;HPM_P2
2021/01/04 00:01:14;;;;;;;6.05;3.35;;;3.70;93.60;;;;;;5008834;28;21284;-55
2021/01/04 00:04:04;;;;;;;4.40;2.75;;;3.70;93.80;;;;;;5014772;28;20045;-55
2021/01/04 00:06:55;;;;;;;5.45;2.72;;;3.70;93.60;;;;;;5005863;28;20044;-54
2021/01/04 00:09:44;;;;;;;8.60;3.20;;;3.70;93.60;;;;;;5015677;28;20632;-55
2021/01/04 00:12:24;;;;;;;4.25;2.13;;;3.70;93.60;;;;;;5008458;28;20045;-55
2021/01/04 00:15:09;;;;;;;4.82;3.20;;;3.70;93.60;;;;;;5010527;28;20041;-55
2021/01/04 00:18:15;;;;;;;6.07;2.63;;;3.70;93.60;;;;;;5007512;28;20116;-55
2021/01/04 00:20:55;;;;;;;8.63;3.65;;;3.70;93.50;;;;;;5006513;28;20468;-55
2021/01/04 00:23:45;;;;;;;7.40;2.75;;;3.80;93.50;;;;;;5009976;28;20490;-55
2021/01/04 00:26:27;;;;;;;9.07;2.92;;;3.70;93.50;;;;;;5007028;28;20042;-55
2021/01/04 00:28:53;;;;;;;4.85;2.85;;;3.80;93.60;;;;;;5007649;28;20045;-55
2021/01/04 00:31:22;;;;;;;5.50;3.35;;;3.80;93.60;;;;;;5007724;28;20037;-55
2021/01/04 00:34:00;;;;;;;5.85;3.25;;;3.70;93.70;;;;;;5007038;28;20405;-55
2021/01/04 00:36:30;;;;;;;3.45;2.00;;;3.70;93.70;;;;;;5007454;28;20657;-55
2021/01/04 00:39:36;;;;;;;5.38;2.80;;;3.70;93.90;;;;;;5007095;28;20488;-55
2021/01/04 00:42:18;;;;;;;4.13;2.63;;;3.70;93.70;;;;;;4998206;28;20078;-55
2021/01/04 00:44:58;;;;;;;4.03;2.45;;;3.70;93.60;;;;;;5008125;28;20029;-54
2021/01/04 00:47:52;;;;;;;4.22;2.25;;;3.80;93.50;;;;;;5005155;28;20045;-55
2021/01/04 00:50:41;;;;;;;7.00;3.58;;;3.80;93.50;;;;;;5008192;28;20302;-55
2021/01/04 00:53:35;;;;;;;4.82;2.60;;;3.80;93.30;;;;;;5007497;28;20046;-55
2021/01/04 00:56:40;;;;;;;4.35;2.75;;;3.80;93.40;;;;;;4999881;28;20053;-55
2021/01/04 00:59:16;;;;;;;6.15;2.67;;;3.80;93.60;;;;;;5007002;28;20085;-55
2021/01/04 01:02:07;;;;;;;8.35;3.20;;;3.80;93.50;;;;;;5008664;28;20054;-55
2021/01/04 01:04:38;;;;;;;4.90;2.75;;;3.80;93.50;;;;;;5009685;28;20057;-55
2021/01/04 01:07:44;;;;;;;5.22;3.03;;;3.70;93.40;;;;;;5008657;28;20121;-55
2021/01/04 01:10:11;;;;;;;4.85;2.33;;;3.70;93.90;;;;;;5014901;28;20033;-55
2021/01/04 01:12:57;;;;;;;5.78;2.53;;;3.70;93.50;;;;;;5013277;28;20037;-55
2021/01/04 01:15:25;;;;;;;4.22;2.42;;;3.70;93.40;;;;;;5010630;28;21002;-55
2021/01/04 01:18:09;;;;;;;4.10;2.53;;;3.80;93.40;;;;;;5009940;28;20049;-54
2021/01/04 01:20:41;;;;;;;4.97;2.70;;;3.80;93.50;;;;;;5012677;28;20049;-55
2021/01/04 01:23:11;;;;;;;6.10;2.53;;;3.70;93.50;;;;;;5016109;28;20046;-55
2021/01/04 01:25:46;;;;;;;6.72;2.67;;;3.70;93.50;;;;;;5010922;28;20034;-55
2021/01/04 01:28:49;;;;;;;6.20;2.88;;;3.80;93.50;;;;;;5008564;28;20476;-55
2021/01/04 01:31:46;;;;;;;5.07;2.75;;;3.80;93.40;;;;;;5009868;28;20069;-55
2021/01/04 01:34:15;;;;;;;7.65;2.88;;;3.80;93.30;;;;;;5011260;28;20041;-55
2021/01/04 01:36:43;;;;;;;4.93;2.80;;;3.80;93.10;;;;;;5011400;28;20420;-55
2021/01/04 01:39:42;;;;;;;6.70;3.08;;;3.80;93.30;;;;;;5013297;28;20037;-54
2021/01/04 01:42:24;;;;;;;6.97;2.75;;;3.70;93.20;;;;;;5009040;28;20072;-54
2021/01/04 01:45:03;;;;;;;8.25;2.75;;;3.80;93.20;;;;;;5012863;28;20396;-55
2021/01/04 01:47:38;;;;;;;7.18;2.55;;;3.80;93.20;;;;;;5008345;28;20066;-55
2021/01/04 01:50:38;;;;;;;4.35;2.55;;;3.80;93.20;;;;;;5011516;28;20122;-54
2021/01/04 01:53:28;;;;;;;5.40;3.05;;;3.80;93.20;;;;;;5010190;28;20030;-55
2021/01/04 01:56:07;;;;;;;6.55;2.90;;;3.80;93.30;;;;;;5013323;28;20544;-54
2021/01/04 01:58:53;;;;;;;4.28;2.53;;;3.70;93.30;;;;;;5008829;28;20481;-55
2021/01/04 02:01:54;;;;;;;5.55;2.05;;;3.70;93.10;;;;;;5012982;28;20096;-55
2021/01/04 02:04:42;;;;;;;5.70;3.00;;;3.80;93.20;;;;;;4964053;28;20465;-55
2021/01/04 02:07:20;;;;;;;6.85;2.90;;;3.70;93.30;;;;;;5010765;28;20111;-55
2021/01/04 02:09:51;;;;;;;6.30;3.28;;;3.70;93.30;;;;;;5016835;28;20062;-55
2021/01/04 02:12:39;;;;;;;5.25;2.67;;;3.70;93.30;;;;;;5011187;28;20044;-55
2021/01/04 02:15:12;;;;;;;6.43;3.33;;;3.70;93.40;;;;;;5009157;28;20034;-55
2021/01/04 02:18:01;;;;;;;5.18;2.40;;;3.70;93.60;;;;;;5008745;28;20052;-55
2021/01/04 02:21:11;;;;;;;5.00;2.45;;;3.70;93.60;;;;;;5009310;28;20127;-54
2021/01/04 02:23:49;;;;;;;8.55;3.42;;;3.60;93.50;;;;;;5010441;28;20041;-55
2021/01/04 02:26:23;;;;;;;5.22;2.88;;;3.70;93.60;;;;;;5009500;28;20030;-55
2021/01/04 02:29:14;;;;;;;6.30;2.83;;;3.70;93.60;;;;;;5011489;28;20137;-55
2021/01/04 02:31:45;;;;;;;4.95;2.97;;;3.70;93.50;;;;;;5013206;28;20112;-55
2021/01/04 02:34:14;;;;;;;8.05;2.92;;;3.70;93.60;;;;;;5000243;28;20084;-55
2021/01/04 02:36:46;;;;;;;5.35;2.80;;;3.70;93.50;;;;;;5008772;28;20038;-55
2021/01/04 02:39:38;;;;;;;6.30;2.83;;;3.60;93.70;;;;;;5008666;28;20057;-55
2021/01/04 02:42:26;;;;;;;5.45;2.65;;;3.60;93.60;;;;;;5010064;28;20046;-54
2021/01/04 02:44:52;;;;;;;4.25;2.60;;;3.70;93.30;;;;;;5010770;28;20034;-55
2021/01/04 02:48:03;;;;;;;5.22;2.78;;;3.70;93.30;;;;;;4991684;28;20451;-55
2021/01/04 02:50:41;;;;;;;6.72;2.92;;;3.60;93.40;;;;;;5010369;28;20054;-54
2021/01/04 02:53:47;;;;;;;4.18;2.50;;;3.60;93.40;;;;;;5010312;28;20065;-55
2021/01/04 02:56:37;;;;;;;4.75;2.50;;;3.70;93.40;;;;;;5010415;28;20069;-55
2021/01/04 02:59:30;;;;;;;5.47;2.38;;;3.70;93.40;;;;;;5014956;28;20520;-54
2021/01/04 03:02:14;;;;;;;4.60;2.58;;;3.70;93.10;;;;;;5012757;28;20054;-55
2021/01/04 03:04:42;;;;;;;7.13;3.83;;;3.70;93.10;;;;;;4989043;28;20281;-55
2021/01/04 03:07:20;;;;;;;5.80;2.45;;;3.70;93.20;;;;;;5007876;28;20112;-55
2021/01/04 03:09:51;;;;;;;4.72;2.50;;;3.60;93.20;;;;;;5011709;28;20042;-55
2021/01/04 03:12:26;;;;;;;4.47;2.63;;;3.70;93.10;;;;;;5009867;28;20127;-55
2021/01/04 03:15:22;;;;;;;7.07;2.70;;;3.60;93.20;;;;;;5005721;28;20374;-55
2021/01/04 03:18:17;;;;;;;5.82;2.38;;;3.70;93.10;;;;;;5009115;28;20050;-55
2021/01/04 03:20:43;;;;;;;7.80;2.80;;;3.70;93.00;;;;;;5007103;28;20058;-55
2021/01/04 03:23:09;;;;;;;7.75;2.10;;;3.70;92.90;;;;;;5008947;28;20052;-55
2021/01/04 03:25:52;;;;;;;6.68;2.58;;;3.70;92.90;;;;;;5009931;28;20508;-55
2021/01/04 03:28:27;;;;;;;5.30;2.33;;;3.70;92.80;;;;;;5008136;28;20053;-55
2021/01/04 03:30:53;;;;;;;5.45;2.45;;;3.60;92.80;;;;;;5009537;28;20504;-55
2021/01/04 03:33:20;;;;;;;9.40;3.17;;;3.70;92.80;;;;;;5003460;28;20073;-55
2021/01/04 03:35:46;;;;;;;5.13;2.17;;;3.70;92.90;;;;;;5005963;28;20452;-54
2021/01/04 03:38:12;;;;;;;5.80;2.15;;;3.70;92.90;;;;;;5007088;28;20052;-55
2021/01/04 03:40:39;;;;;;;2.60;1.73;;;3.70;92.80;;;;;;5010189;28;20144;-54
2021/01/04 03:43:05;;;;;;;7.15;2.88;;;3.70;92.60;;;;;;5009002;28;20511;-55
2021/01/04 03:45:30;;;;;;;6.97;2.58;;;3.80;92.50;;;;;;5008305;28;20053;-55
2021/01/04 03:47:56;;;;;;;5.45;1.88;;;3.80;93.00;;;;;;5008166;28;20046;-55
2021/01/04 03:50:22;;;;;;;5.75;1.95;;;3.70;92.80;;;;;;5010553;28;20069;-54
2021/01/04 03:52:47;;;;;;;6.45;2.60;;;3.70;92.90;;;;;;5010714;28;20030;-54
2021/01/04 03:55:15;;;;;;;5.47;1.95;;;3.70;92.70;;;;;;5009110;28;20503;-55
2021/01/04 03:57:41;;;;;;;7.22;2.92;;;3.70;92.50;;;;;;5006177;28;21239;-55
2021/01/04 04:00:08;;;;;;;6.20;2.05;;;3.70;92.80;;;;;;5010223;28;20076;-54
2021/01/04 04:02:34;;;;;;;9.38;2.67;;;3.70;92.70;;;;;;5005170;28;20069;-55
2021/01/04 04:05:02;;;;;;;10.32;2.78;;;3.70;92.70;;;;;;5009035;28;20096;-55
2021/01/04 04:07:27;;;;;;;8.70;2.35;;;3.70;92.70;;;;;;5009460;28;20042;-55
2021/01/04 04:09:53;;;;;;;5.25;2.45;;;3.70;92.90;;;;;;5009866;28;20503;-55
2021/01/04 04:12:19;;;;;;;3.33;1.90;;;3.70;92.80;;;;;;5009708;28;20030;-55
2021/01/04 04:14:48;;;;;;;4.60;1.67;;;3.70;93.00;;;;;;5011160;28;20054;-54
2021/01/04 04:17:15;;;;;;;5.20;2.33;;;3.70;92.50;;;;;;5008566;28;20040;-55
2021/01/04 04:19:47;;;;;;;5.18;1.90;;;3.60;92.60;;;;;;5009877;28;20080;-55
2021/01/04 04:22:13;;;;;;;8.25;2.65;;;3.70;92.90;;;;;;5009388;28;20115;-55
2021/01/04 04:24:40;;;;;;;5.18;2.05;;;3.70;92.90;;;;;;5009841;28;20042;-54
2021/01/04 04:27:11;;;;;;;7.13;2.42;;;3.70;92.60;;;;;;5009550;28;20038;-55
2021/01/04 04:29:41;;;;;;;9.48;2.92;;;3.70;92.90;;;;;;5008587;28;20033;-55
2021/01/04 04:32:08;;;;;;;6.85;2.33;;;3.60;93.00;;;;;;5009612;28;20096;-55
2021/01/04 04:34:35;;;;;;;4.07;2.03;;;3.60;93.10;;;;;;5008551;28;20053;-55
2021/01/04 04:37:01;;;;;;;3.60;2.08;;;3.60;93.00;;;;;;5007773;28;20447;-54
2021/01/04 04:39:26;;;;;;;5.40;1.98;;;3.60;93.10;;;;;;5010472;28;20033;-54
2021/01/04 04:41:54;;;;;;;4.85;1.75;;;3.60;92.80;;;;;;5014062;28;20041;-55
2021/01/04 04:44:36;;;;;;;7.63;2.65;;;3.60;93.00;;;;;;5014609;28;20502;-56
2021/01/04 04:47:15;;;;;;;5.22;2.40;;;3.60;93.10;;;;;;5013047;28;20241;-56
2021/01/04 04:49:59;;;;;;;10.57;2.72;;;3.60;93.40;;;;;;5011275;28;20125;-56
2021/01/04 04:52:55;;;;;;;5.40;2.30;;;3.60;93.00;;;;;;5010400;28;20109;-56
2021/01/04 04:55:46;;;;;;;5.03;1.95;;;3.60;93.00;;;;;;5013960;28;20416;-56
2021/01/04 04:58:17;;;;;;;6.85;1.90;;;3.60;93.20;;;;;;5012215;28;20042;-56
2021/01/04 05:00:58;;;;;;;4.13;1.42;;;3.60;93.20;;;;;;5013471;28;20117;-56
2021/01/04 05:04:00;;;;;;;6.47;2.00;;;3.60;93.10;;;;;;5010546;28;20088;-56
2021/01/04 05:06:47;;;;;;;5.63;2.03;;;3.30;93.10;;;;;;5008369;28;20096;-56
2021/01/04 05:09:19;;;;;;;;;;;3.60;93.10;;;;;;5013176;28;20555;-56
2021/01/04 05:11:48;;;;;;;3.42;1.40;;;3.60;93.10;;;;;;5012868;28;20375;-56
2021/01/04 05:14:22;;;;;;;4.35;1.70;;;3.60;92.80;;;;;;5012211;28;20060;-56
2021/01/04 05:17:14;;;;;;;5.55;1.40;;;3.60;92.90;;;;;;5007534;28;20030;-56
2021/01/04 05:19:59;;;;;;;6.53;2.00;;;3.60;92.70;;;;;;5010781;28;20073;-56
2021/01/04 05:22:56;;;;;;;5.28;1.52;;;3.60;92.80;;;;;;5010283;28;20523;-56
2021/01/04 05:25:42;;;;;;;;;;;3.60;92.60;;;;;;5008465;28;20360;-56
2021/01/04 05:28:24;;;;;;;;;;;3.60;92.50;;;;;;5007498;28;19964;-56
2021/01/04 05:30:49;;;;;;;;;;;3.60;92.70;;;;;;5011520;28;20016;-56
2021/01/04 05:33:44;;;;;;;;;;;3.60;92.70;;;;;;5011297;28;20019;-56
2021/01/04 05:36:28;;;;;;;;;;;3.60;92.40;;;;;;4940388;28;19918;-56
2021/01/04 05:39:01;;;;;;;;;;;3.60;92.50;;;;;;5011356;28;19921;-56
2021/01/04 05:41:45;;;;;;;;;;;3.60;92.30;;;;;;5010001;28;19944;-56
2021/01/04 05:44:14;;;;;;;;;;;3.60;92.30;;;;;;5012597;28;19917;-56
2021/01/04 05:46:46;;;;;;;;;;;3.60;92.50;;;;;;5006768;28;19917;-56
2021/01/04 05:49:17;;;;;;;;;;;3.60;92.60;;;;;;5012756;28;19929;-56
2021/01/04 05:51:45;;;;;;;;;;;3.60;92.30;;;;;;5011833;28;19924;-56
2021/01/04 05:54:12;;;;;;;;;;;3.60;92.20;;;;;;5010972;28;19971;-56
2021/01/04 05:56:37;;;;;;;;;;;3.60;92.20;;;;;;5012159;28;20170;-56
2021/01/04 05:59:11;;;;;;;;;;;3.60;92.00;;;;;;5012966;28;19917;-56
2021/01/04 06:01:38;;;;;;;;;;;3.60;92.20;;;;;;5015921;28;19940;-56
2021/01/04 06:04:05;;;;;;;;;;;3.60;92.10;;;;;;5015572;28;19953;-56
2021/01/04 06:06:34;;;;;;;;;;;3.60;91.90;;;;;;5011595;28;19925;-56
2021/01/04 06:09:12;;;;;;;;;;;3.60;92.00;;;;;;5009540;28;19967;-56
2021/01/04 06:11:49;;;;;;;;;;;3.60;91.90;;;;;;5011431;28;19971;-56
2021/01/04 06:14:15;;;;;;;;;;;3.60;92.20;;;;;;5011469;28;19917;-56
2021/01/04 06:16:42;;;;;;;;;;;3.60;92.10;;;;;;5011060;28;19921;-56
2021/01/04 06:19:10;;;;;;;;;;;3.60;91.90;;;;;;5011450;28;20303;-56
2021/01/04 06:21:50;;;;;;;;;;;3.60;92.00;;;;;;5014562;28;19917;-56
2021/01/04 06:24:35;;;;;;;;;;;3.60;92.10;;;;;;4993242;28;20017;-56
2021/01/04 06:27:14;;;;;;;;;;;3.60;91.90;;;;;;5010636;28;19921;-56
2021/01/04 06:29:42;;;;;;;;;;;3.60;91.70;;;;;;5014421;28;19940;-56
2021/01/04 06:32:21;;;;;;;;;;;3.60;91.80;;;;;;5010946;28;20379;-56
2021/01/04 06:34:58;;;;;;;;;;;3.60;91.90;;;;;;5010139;28;20298;-56
2021/01/04 06:37:25;;;;;;;;;;;3.60;92.00;;;;;;5012576;28;19921;-56
2021/01/04 06:40:01;;;;;;;;;;;3.60;91.80;;;;;;5012623;28;19918;-56
2021/01/04 06:42:32;;;;;;;;;;;3.60;91.80;;;;;;5009394;28;19922;-56
2021/01/04 06:45:02;;;;;;;;;;;3.60;92.00;;;;;;5006097;28;19964;-56
2021/01/04 06:47:32;;;;;;;;;;;3.60;91.90;;;;;;5010252;28;19932;-56
2021/01/04 06:50:02;;;;;;;;;;;3.50;91.90;;;;;;5010957;28;19927;-56
2021/01/04 06:52:37;;;;;;;;;;;3.50;91.70;;;;;;5013152;28;20011;-56
2021/01/04 06:55:06;;;;;;;;;;;3.50;91.80;;;;;;5007625;28;19948;-56
2021/01/04 06:57:50;;;;;;;;;;;3.60;91.50;;;;;;5009023;28;20292;-56
2021/01/04 07:00:23;;;;;;;;;;;3.50;91.50;;;;;;5008833;28;19937;-56
2021/01/04 07:02:51;;;;;;;;;;;3.50;91.40;;;;;;5008449;28;19929;-56
2021/01/04 07:05:25;;;;;;;;;;;3.50;91.70;;;;;;5008700;28;19929;-56
2021/01/04 07:08:10;;;;;;;;;;;3.50;91.50;;;;;;5005300;28;19968;-55
2021/01/04 07:10:41;;;;;;;;;;;3.50;91.50;;;;;;5004277;28;19922;-55
2021/01/04 07:13:13;;;;;;;;;;;3.50;91.30;;;;;;5007854;28;19928;-55
2021/01/04 07:15:47;;;;;;;;;;;3.50;91.40;;;;;;5008604;28;19924;-55
2021/01/04 07:18:22;;;;;;;;;;;3.50;91.10;;;;;;5013933;28;20411;-55
2021/01/04 07:20:56;;;;;;;;;;;3.50;91.30;;;;;;5009704;28;19917;-55
2021/01/04 07:23:30;;;;;;;;;;;3.40;91.20;;;;;;5010228;28;20011;-55
2021/01/04 07:26:05;;;;;;;;;;;3.40;91.20;;;;;;5008388;28;19925;-55
2021/01/04 07:28:49;;;;;;;;;;;3.40;91.30;;;;;;5010508;28;19921;-55
2021/01/04 07:31:33;;;;;;;;;;;3.40;91.20;;;;;;5007504;28;19925;-55
2021/01/04 07:34:10;;;;;;;;;;;3.30;91.00;;;;;;5005455;28;19928;-54
2021/01/04 07:36:49;;;;;;;;;;;3.30;90.90;;;;;;5009044;28;20049;-55
2021/01/04 07:39:21;;;;;;;;;;;3.30;91.10;;;;;;5004223;28;20395;-54
2021/01/04 07:41:47;;;;;;;;;;;3.30;91.20;;;;;;4987378;28;20345;-55
2021/01/04 07:44:30;;;;;;;;;;;3.20;91.40;;;;;;5004154;28;19925;-55
2021/01/04 07:46:56;;;;;;;;;;;3.20;91.20;;;;;;5007301;28;20000;-55
2021/01/04 07:49:34;;;;;;;;;;;3.10;91.40;;;;;;5010637;28;20439;-53
2021/01/04 07:52:09;;;;;;;;;;;3.10;91.40;;;;;;5012529;28;19921;-55
2021/01/04 07:54:38;;;;;;;;;;;3.10;91.40;;;;;;5008635;28;19925;-55
2021/01/04 07:57:22;;;;;;;;;;;3.10;91.60;;;;;;5009686;28;19925;-55
2021/01/04 07:59:58;;;;;;;;;;;3.10;91.60;;;;;;5008338;28;19933;-55
2021/01/04 08:02:42;;;;;;;;;;;3.10;91.70;;;;;;5009089;28;19929;-55
2021/01/04 08:05:17;;;;;;;;;;;3.10;91.30;;;;;;5006736;28;19921;-55
2021/01/04 08:08:02;;;;;;;;;;;3.10;91.20;;;;;;5006041;28;19928;-55
2021/01/04 08:10:49;;;;;;;;;;;3.00;91.50;;;;;;5008074;28;19929;-55
2021/01/04 08:13:33;;;;;;;;;;;3.00;91.70;;;;;;5008350;28;19917;-55
2021/01/04 08:16:03;;;;;;;;;;;3.00;91.60;;;;;;5014483;28;19917;-55
2021/01/04 08:18:30;;;;;;;;;;;3.00;91.70;;;;;;5011957;28;19928;-55
2021/01/04 08:21:07;;;;;;;;;;;3.00;91.70;;;;;;5016547;28;19996;-55
2021/01/04 08:23:36;;;;;;;;;;;3.00;91.60;;;;;;5020143;28;19956;-55
2021/01/04 08:26:09;;;;;;;;;;;3.00;91.60;;;;;;5012720;28;19917;-55
2021/01/04 08:28:38;;;;;;;;;;;3.00;91.50;;;;;;5017467;28;19918;-55
2021/01/04 08:31:14;;;;;;;;;;;3.00;91.70;;;;;;5013966;28;19967;-55
2021/01/04 08:33:44;;;;;;;;;;;3.10;90.90;;;;;;5012819;28;19921;-55
2021/01/04 08:36:17;;;;;;;;;;;3.10;91.20;;;;;;5013576;28;19918;-55
2021/01/04 08:38:43;;;;;;;;;;;3.00;91.20;;;;;;5015450;28;20267;-55
2021/01/04 08:41:22;;;;;;;;;;;3.10;91.20;;;;;;5017095;28;19924;-55
2021/01/04 08:43:49;;;;;;;;;;;3.10;91.30;;;;;;5014192;28;19924;-55
2021/01/04 08:46:20;;;;;;;;;;;3.10;91.00;;;;;;5015620;28;20007;-55
2021/01/04 08:48:46;;;;;;;;;;;3.10;91.10;;;;;;5013889;28;20360;-55
2021/01/04 08:51:32;;;;;;;;;;;3.10;91.00;;;;;;5010734;28;19965;-55
2021/01/04 08:54:03;;;;;;;;;;;3.10;91.00;;;;;;5018321;28;20460;-55
2021/01/04 08:56:34;;;;;;;;;;;3.00;91.20;;;;;;5015092;28;20265;-55
2021/01/04 08:59:08;;;;;;;;;;;3.00;91.20;;;;;;5017470;28;19924;-55
2021/01/04 09:01:34;;;;;;;;;;;3.10;91.00;;;;;;5016728;28;20032;-54
2021/01/04 09:04:07;;;;;;;;;;;3.10;90.70;;;;;;5012765;28;19917;-55
2021/01/04 09:06:43;;;;;;;;;;;3.10;90.50;;;;;;5012439;28;20008;-55
2021/01/04 09:09:13;;;;;;;;;;;3.10;90.60;;;;;;5012351;28;19925;-55
2021/01/04 09:11:58;;;;;;;;;;;3.10;90.30;;;;;;5010877;28;19925;-55
2021/01/04 09:14:26;;;;;;;;;;;3.10;90.50;;;;;;5014481;28;20279;-55
2021/01/04 09:16:51;;;;;;;;;;;3.20;90.40;;;;;;5014288;28;20331;-55
2021/01/04 09:19:25;;;;;;;;;;;3.20;90.50;;;;;;5011776;28;19921;-55
2021/01/04 09:21:51;;;;;;;;;;;3.10;90.40;;;;;;5014327;28;19924;-55
2021/01/04 09:24:31;;;;;;;;;;;3.10;90.20;;;;;;5022001;28;20314;-55
2021/01/04 09:26:58;;;;;;;;;;;3.10;90.30;;;;;;5015353;28;19921;-55
2021/01/04 09:29:26;;;;;;;;;;;3.20;90.20;;;;;;5017135;28;19921;-55
2021/01/04 09:31:54;;;;;;;;;;;3.20;90.20;;;;;;5016531;28;19924;-55
2021/01/04 09:34:20;;;;;;;;;;;3.10;90.10;;;;;;5015909;28;19917;-55
2021/01/04 09:36:46;;;;;;;;;;;3.20;90.20;;;;;;5015144;28;19960;-55
2021/01/04 09:39:13;;;;;;;;;;;3.10;90.00;;;;;;5020241;28;19949;-55
2021/01/04 09:41:39;;;;;;;;;;;3.10;90.20;;;;;;5013113;28;20384;-55
2021/01/04 09:44:09;;;;;;;;;;;3.10;90.10;;;;;;5015377;28;19917;-55
2021/01/04 09:46:46;;;;;;;;;;;3.20;90.20;;;;;;5013563;28;19964;-55
2021/01/04 09:49:18;;;;;;;;;;;3.10;90.10;;;;;;5013301;28;19943;-55
2021/01/04 09:51:48;;;;;;;;;;;3.10;90.10;;;;;;5014648;28;19987;-55
2021/01/04 09:54:25;;;;;;;;;;;3.10;90.10;;;;;;5022937;28;19964;-55
2021/01/04 09:56:50;;;;;;;;;;;3.10;90.30;;;;;;5008517;28;19917;-54
2021/01/04 09:59:20;;;;;;;;;;;3.10;90.10;;;;;;5017190;28;19924;-55
2021/01/04 10:01:54;;;;;;;;;;;3.10;90.00;;;;;;5016320;28;19925;-55
2021/01/04 10:04:27;;;;;;;;;;;3.10;90.40;;;;;;5011687;28;19967;-55
2021/01/04 10:06:53;;;;;;;;;;;3.10;89.90;;;;;;5011262;28;20330;-55
2021/01/04 10:09:19;;;;;;;;;;;3.00;90.20;;;;;;5016109;28;19924;-55
2021/01/04 10:11:46;;;;;;;;;;;3.10;90.20;;;;;;5017667;28;19925;-55
2021/01/04 10:14:13;;;;;;;;;;;3.10;89.50;;;;;;5015226;28;19927;-55
2021/01/04 10:16:41;;;;;;;;;;;3.10;89.60;;;;;;5013753;28;20382;-55
2021/01/04 10:19:17;;;;;;;;;;;3.10;89.00;;;;;;5019315;28;19918;-55
2021/01/04 10:21:46;;;;;;;;;;;3.00;90.30;;;;;;5017998;28;19925;-55
2021/01/04 10:24:18;;;;;;;;;;;3.10;90.10;;;;;;5017006;28;19979;-55
2021/01/04 10:26:45;;;;;;;;;;;3.00;90.00;;;;;;5013680;28;20287;-55
2021/01/04 10:29:18;;;;;;;;;;;3.00;90.30;;;;;;5022199;28;20364;-55
2021/01/04 10:31:43;;;;;;;;;;;3.00;89.70;;;;;;5017148;28;19921;-55
2021/01/04 10:34:13;;;;;;;;;;;3.10;89.80;;;;;;5014067;28;19918;-55
2021/01/04 10:36:42;;;;;;;;;;;3.00;89.70;;;;;;5015383;28;19917;-55
2021/01/04 10:39:17;;;;;;;;;;;3.00;89.20;;;;;;5016147;28;20360;-55
2021/01/04 10:41:42;;;;;;;;;;;3.00;90.10;;;;;;5015812;28;19944;-55
2021/01/04 10:44:10;;;;;;;;;;;3.00;89.80;;;;;;5019467;28;19922;-55
2021/01/04 10:46:41;;;;;;;;;;;3.00;89.90;;;;;;5013220;28;20000;-55
2021/01/04 10:49:08;;;;;;;;;;;3.00;90.00;;;;;;5017296;28;19952;-55
2021/01/04 10:51:37;;;;;;;;;;;3.00;90.00;;;;;;5013396;28;20170;-55
2021/01/04 10:54:12;;;;;;;;;;;3.00;90.10;;;;;;5018856;28;19917;-54
2021/01/04 10:56:40;;;;;;;;;;;3.00;89.10;;;;;;5014615;28;19921;-55
2021/01/04 10:59:17;;;;;;;;;;;3.00;88.80;;;;;;5010849;28;19917;-55
2021/01/04 11:01:43;;;;;;;;;;;3.00;90.00;;;;;;5016383;28;20777;-55
2021/01/04 11:04:11;;;;;;;;;;;3.00;90.10;;;;;;5011857;28;19928;-55
2021/01/04 11:06:38;;;;;;;;;;;3.00;89.60;;;;;;4992684;28;19918;-55
2021/01/04 11:09:30;;;;;;;;;;;3.00;90.10;;;;;;5016374;28;20443;-55
2021/01/04 11:12:23;;;;;;;;;;;3.00;89.70;;;;;;5009168;28;19941;-55
2021/01/04 11:14:52;;;;;;;;;;;3.10;89.50;;;;;;5011245;28;20008;-55
2021/01/04 11:17:19;;;;;;;;;;;3.10;89.20;;;;;;5016316;28;19928;-55
2021/01/04 11:19:45;;;;;;;;;;;3.10;88.90;;;;;;5014856;28;19921;-55
2021/01/04 11:22:21;;;;;;;;;;;3.10;88.50;;;;;;5016369;28;19917;-55
2021/01/04 11:24:47;;;;;;;;;;;3.00;89.00;;;;;;5014465;28;19925;-55
2021/01/04 11:27:13;;;;;;;;;;;3.00;87.80;;;;;;5017238;28;19917;-55
2021/01/04 11:29:39;;;;;;;;;;;3.00;89.10;;;;;;5023320;28;19930;-55
2021/01/04 11:32:05;;;;;;;;;;;3.00;89.00;;;;;;5012653;28;19952;-55
2021/01/04 11:34:31;;;;;;;;;;;3.00;89.10;;;;;;5016447;28;19992;-55
2021/01/04 11:36:56;;;;;;;;;;;3.00;89.00;;;;;;5009776;28;20012;-55
2021/01/04 11:39:23;;;;;;;;;;;3.00;90.00;;;;;;5010983;28;19924;-54
2021/01/04 11:41:48;;;;;;;;;;;3.10;89.40;;;;;;5014297;28;20280;-54
2021/01/04 11:44:14;;;;;;;;;;;3.10;88.50;;;;;;5013556;28;19927;-55
2021/01/04 11:46:40;;;;;;;;;;;3.10;89.60;;;;;;5012712;28;19924;-55
2021/01/04 11:49:05;;;;;;;;;;;3.10;89.30;;;;;;5011258;28;19973;-55
2021/01/04 11:51:31;;;;;;;;;;;3.00;88.40;;;;;;4990607;28;20340;-55
2021/01/04 11:53:56;;;;;;;;;;;3.00;90.00;;;;;;5008531;28;20377;-55
2021/01/04 11:56:23;;;;;;;;;;;3.00;87.80;;;;;;5013171;28;19972;-55
2021/01/04 11:58:49;;;;;;;;;;;3.00;89.50;;;;;;5011076;28;19925;-55
2021/01/04 12:01:15;;;;;;;;;;;3.00;88.70;;;;;;5014648;28;19925;-55
2021/01/04 12:03:41;;;;;;;;;;;3.00;88.90;;;;;;5013378;28;19924;-55
2021/01/04 12:06:08;;;;;;;;;;;3.00;88.80;;;;;;5012886;28;19917;-55
2021/01/04 12:08:33;;;;;;;;;;;2.90;89.10;;;;;;5007830;28;19917;-55
2021/01/04 12:10:59;;;;;;;;;;;2.90;89.50;;;;;;5009424;28;19921;-53
2021/01/04 12:13:25;;;;;;;;;;;2.90;89.40;;;;;;5010299;28;19922;-56
2021/01/04 12:15:54;;;;;;;;;;;2.90;88.90;;;;;;5009721;28;19924;-55
2021/01/04 12:18:19;;;;;;;;;;;2.90;89.00;;;;;;5011974;28;20000;-55
2021/01/04 12:20:46;;;;;;;;;;;2.90;89.70;;;;;;5010367;28;20331;-55
2021/01/04 12:23:11;;;;;;;;;;;2.90;89.20;;;;;;5007689;28;19921;-55
2021/01/04 12:25:37;;;;;;;;;;;2.90;88.70;;;;;;5011887;28;19917;-56
2021/01/04 12:28:02;;;;;;;;;;;2.90;89.10;;;;;;5009020;28;19989;-55
2021/01/04 12:30:28;;;;;;;;;;;2.90;88.50;;;;;;5013146;28;19921;-56
2021/01/04 12:32:54;;;;;;;;;;;2.90;89.00;;;;;;5010426;28;19956;-56
2021/01/04 12:35:20;;;;;;;;;;;2.90;89.70;;;;;;5011788;28;20011;-55
2021/01/04 12:37:46;;;;;;;;;;;2.90;89.00;;;;;;5009001;28;20400;-55
2021/01/04 12:40:13;;;;;;;;;;;2.90;88.30;;;;;;5014767;28;19917;-55
2021/01/04 12:42:40;;;;;;;;;;;3.00;88.10;;;;;;5008785;28;20367;-56
2021/01/04 12:45:06;;;;;;;;;;;2.60;88.70;;;;;;5009565;28;19917;-56
2021/01/04 12:47:32;;;;;;;;;;;3.00;89.20;;;;;;5013764;28;19921;-56
2021/01/04 12:49:57;;;;;;;;;;;2.90;88.60;;;;;;5012270;28;19917;-56
2021/01/04 12:52:23;;;;;;;;;;;3.00;89.40;;;;;;5010237;28;20385;-56
2021/01/04 12:54:48;;;;;;;;;;;3.00;88.00;;;;;;5012521;28;19937;-55
2021/01/04 12:57:14;;;;;;;;;;;3.00;88.00;;;;;;5007299;28;19921;-56
2021/01/04 12:59:41;;;;;;;;;;;3.00;89.00;;;;;;4992872;28;19986;-56
2021/01/04 13:02:07;;;;;;;;;;;3.00;88.20;;;;;;5016053;28;19924;-56
2021/01/04 13:04:33;;;;;;;;;;;3.10;88.40;;;;;;5013734;28;19928;-55
2021/01/04 13:06:59;;;;;;;;;;;3.00;88.60;;;;;;5015842;28;20504;-56
2021/01/04 13:09:25;;;;;;;;;;;3.00;89.00;;;;;;5013906;28;19956;-56
2021/01/04 13:11:51;;;;;;;;;;;2.90;89.30;;;;;;5017518;28;19924;-55
2021/01/04 13:14:18;;;;;;;;;;;2.90;88.80;;;;;;5013199;28;19921;-56
2021/01/04 13:16:45;;;;;;;;;;;2.90;88.50;;;;;;5012678;28;19917;-55
2021/01/04 13:19:10;;;;;;;;;;;2.80;88.40;;;;;;5014947;28;19921;-56
2021/01/04 13:21:36;;;;;;;;;;;2.90;88.10;;;;;;5014244;28;20283;-55
2021/01/04 13:24:06;;;;;;;;;;;2.90;88.90;;;;;;5012825;28;19972;-56
2021/01/04 13:26:45;;;;;;;;;;;2.90;88.90;;;;;;5015018;28;19972;-55
2021/01/04 13:29:11;;;;;;;;;;;2.90;89.10;;;;;;5013811;28;19929;-55
2021/01/04 13:31:37;;;;;;;;;;;2.90;89.60;;;;;;5014140;28;19925;-55
2021/01/04 13:34:03;;;;;;;;;;;2.90;89.50;;;;;;5012918;28;20419;-56
2021/01/04 13:36:28;;;;;;;;;;;2.90;88.60;;;;;;5012971;28;19925;-56
2021/01/04 13:38:54;;;;;;;;;;;2.90;89.50;;;;;;5013123;28;19921;-56
2021/01/04 13:41:19;;;;;;;;;;;2.90;89.30;;;;;;5014356;28;19989;-56
2021/01/04 13:43:45;;;;;;;;;;;2.90;89.00;;;;;;4994995;28;19925;-55
2021/01/04 13:46:19;;;;;;;;;;;2.90;89.20;;;;;;5018030;28;20166;-56
2021/01/04 13:48:45;;;;;;;;;;;2.90;88.80;;;;;;5014283;28;19941;-55
2021/01/04 13:51:11;;;;;;;;;;;2.90;88.70;;;;;;5013097;28;20322;-55
2021/01/04 13:53:36;;;;;;;;;;;2.90;88.60;;;;;;5014608;28;19917;-55
2021/01/04 13:56:02;;;;;;;;;;;2.90;89.20;;;;;;5011552;28;20376;-56
2021/01/04 13:58:28;;;;;;;;;;;2.90;88.90;;;;;;5014581;28;20027;-56
2021/01/04 14:00:54;;;;;;;;;;;2.90;89.00;;;;;;4999737;28;19921;-56
2021/01/04 14:03:19;;;;;;;;;;;2.90;89.40;;;;;;5014316;28;20372;-55
2021/01/04 14:05:45;;;;;;;;;;;2.90;89.90;;;;;;5012257;28;19989;-56
2021/01/04 14:08:11;;;;;;;;;;;2.90;88.90;;;;;;5012728;28;20367;-56
2021/01/04 14:10:36;;;;;;;;;;;2.90;89.20;;;;;;4994812;28;19968;-56
2021/01/04 14:13:02;;;;;;;;;;;2.90;89.20;;;;;;5014024;28;19921;-56
2021/01/04 14:15:28;;;;;;;;;;;2.90;89.20;;;;;;5011237;28;20004;-56
2021/01/04 14:17:53;;;;;;;;;;;2.90;88.50;;;;;;5013071;28;19921;-56
2021/01/04 14:20:19;;;;;;;;;;;2.90;88.70;;;;;;5014748;28;20294;-56
2021/01/04 14:22:44;;;;;;;;;;;2.80;88.50;;;;;;5014932;28;19924;-56
2021/01/04 14:25:10;;;;;;;;;;;2.90;89.20;;;;;;5011775;28;19918;-56
2021/01/04 14:27:36;;;;;;;;;;;2.90;89.30;;;;;;5013766;28;19922;-56
2021/01/04 14:30:03;;;;;;;;;;;2.80;89.00;;;;;;5011519;28;20299;-56